Time;durP1;ratioP1;P1;durP2;ratioP2;P2;SDS_P1;SDS_P2;PMS_P1;PMS_P2;Temp;Humidity;BMP_temperature;BMP_pressure;BME280_temperature;BME280_humidity;BME280_pressure;Samples;Min_cycle;Max_cycle;Signal;HPM_P1;HPM_P2
2021/06/10 00:00:41;;;;;;;3.63;2.80;;;19.00;91.10;;;;;;4443527;32;20539;-73
2021/06/10 00:03:08;;;;;;;3.17;2.70;;;19.00;91.30;;;;;;4442040;32;20134;-73
2021/06/10 00:05:35;;;;;;;3.97;2.80;;;19.00;91.30;;;;;;4443399;32;20139;-73
2021/06/10 00:08:03;;;;;;;4.27;2.90;;;18.80;91.90;;;;;;4441845;32;20193;-73
2021/06/10 00:10:31;;;;;;;3.63;3.00;;;18.80;91.60;;;;;;4441982;32;20174;-73
2021/06/10 00:12:58;;;;;;;5.00;2.90;;;18.80;91.70;;;;;;4441970;32;20403;-73
2021/06/10 00:15:28;;;;;;;7.63;3.17;;;18.80;91.90;;;;;;4443269;32;20165;-73
2021/06/10 00:17:55;;;;;;;4.70;2.90;;;18.70;92.10;;;;;;4441337;32;20210;-73
2021/06/10 00:20:26;;;;;;;5.10;3.10;;;18.60;92.30;;;;;;4443289;32;20138;-73
2021/06/10 00:22:55;;;;;;;3.40;2.83;;;18.40;92.60;;;;;;4442882;32;20164;-73
2021/06/10 00:25:23;;;;;;;5.20;3.20;;;18.40;92.80;;;;;;4441719;32;20147;-73
2021/06/10 00:27:50;;;;;;;8.13;3.23;;;18.40;92.90;;;;;;4441629;32;20199;-73
2021/06/10 00:30:18;;;;;;;5.63;2.70;;;18.40;93.20;;;;;;4443103;32;20398;-73
2021/06/10 00:32:47;;;;;;;6.13;3.03;;;18.30;93.40;;;;;;4441972;32;20166;-73
2021/06/10 00:35:14;;;;;;;3.40;2.70;;;18.30;93.30;;;;;;4442721;32;20155;-73
2021/06/10 00:37:42;;;;;;;5.17;3.00;;;18.30;93.30;;;;;;4441512;32;20160;-73
2021/06/10 00:40:10;;;;;;;4.70;3.10;;;18.40;93.00;;;;;;4440728;32;20130;-73
2021/06/10 00:42:37;;;;;;;4.80;2.90;;;18.40;93.00;;;;;;4442713;32;20261;-73
2021/06/10 00:45:10;;;;;;;5.47;3.10;;;18.30;93.50;;;;;;4448408;32;20155;-73
2021/06/10 00:47:37;;;;;;;4.67;2.63;;;18.40;93.50;;;;;;4443326;32;20154;-73
2021/06/10 00:50:05;;;;;;;6.07;2.77;;;18.30;92.90;;;;;;4449326;32;20154;-73
2021/06/10 00:52:33;;;;;;;4.70;2.93;;;18.20;93.10;;;;;;4442872;32;20146;-73
2021/06/10 00:55:00;;;;;;;4.90;3.00;;;18.20;93.10;;;;;;4441457;32;20480;-73
2021/06/10 00:57:27;;;;;;;3.60;2.83;;;18.20;93.10;;;;;;4441557;32;20143;-73
2021/06/10 00:59:54;;;;;;;3.03;2.60;;;18.20;93.20;;;;;;4441260;32;20138;-73
2021/06/10 01:02:21;;;;;;;3.97;2.80;;;18.20;93.30;;;;;;4442236;32;20508;-73
2021/06/10 01:04:48;;;;;;;4.20;2.90;;;18.20;93.20;;;;;;4441113;32;20135;-73
2021/06/10 01:07:38;;;;;;;3.60;2.73;;;18.20;93.30;;;;;;4440970;32;20158;-71
2021/06/10 01:10:26;;;;;;;7.17;2.90;;;18.10;93.20;;;;;;4443016;32;20386;-71
2021/06/10 01:13:03;;;;;;;4.10;2.70;;;18.10;93.20;;;;;;4442611;32;20142;-71
2021/06/10 01:15:37;;;;;;;4.80;3.00;;;18.10;93.50;;;;;;4442498;32;20135;-71
2021/06/10 01:18:04;;;;;;;4.50;2.93;;;18.10;93.40;;;;;;4442560;32;20183;-71
2021/06/10 01:20:32;;;;;;;4.47;2.70;;;18.00;93.30;;;;;;4440406;32;20154;-71
2021/06/10 01:23:21;;;;;;;5.30;2.67;;;17.90;93.80;;;;;;4442464;32;20161;-72
2021/06/10 01:26:21;;;;;;;4.07;2.53;;;18.00;94.20;;;;;;4440820;32;20401;-71
2021/06/10 01:28:51;;;;;;;4.57;2.53;;;18.00;94.10;;;;;;4377638;32;20230;-71
2021/06/10 01:31:19;;;;;;;5.33;2.53;;;18.00;94.30;;;;;;4378786;32;20152;-71
2021/06/10 01:33:53;;;;;;;3.67;2.80;;;18.00;93.90;;;;;;4377659;32;20160;-70
2021/06/10 01:36:26;;;;;;;4.40;3.10;;;18.00;93.90;;;;;;4377765;32;20243;-71
2021/06/10 01:38:57;;;;;;;3.53;2.70;;;17.90;94.00;;;;;;4379500;32;20419;-72
2021/06/10 01:41:25;;;;;;;4.63;2.73;;;17.80;94.30;;;;;;4379116;32;20183;-72
2021/06/10 01:43:54;;;;;;;4.93;2.80;;;17.80;94.30;;;;;;4377688;32;20469;-72
2021/06/10 01:46:26;;;;;;;4.17;2.83;;;17.70;94.40;;;;;;4378686;32;20183;-73
2021/06/10 01:48:54;;;;;;;3.53;2.60;;;17.70;94.60;;;;;;4379308;32;20174;-73
2021/06/10 01:51:24;;;;;;;5.30;2.80;;;17.70;94.60;;;;;;4377851;32;20478;-73
2021/06/10 01:53:52;;;;;;;2.90;2.60;;;17.70;94.70;;;;;;4378005;32;20156;-73
2021/06/10 01:56:22;;;;;;;4.50;2.87;;;17.70;94.80;;;;;;4377500;32;20140;-73
2021/06/10 01:58:51;;;;;;;6.10;3.30;;;17.60;95.00;;;;;;4379229;32;20402;-72
2021/06/10 02:01:25;;;;;;;5.37;2.90;;;17.40;95.10;;;;;;4378622;32;20190;-72
2021/06/10 02:03:53;;;;;;;5.20;2.90;;;17.40;95.20;;;;;;4379374;32;20193;-73
2021/06/10 02:06:21;;;;;;;3.33;2.50;;;17.40;95.50;;;;;;4419554;32;20174;-74
2021/06/10 02:08:50;;;;;;;4.07;2.90;;;17.40;95.80;;;;;;4441234;32;20134;-71
2021/06/10 02:11:17;;;;;;;4.63;2.90;;;17.40;95.70;;;;;;4441649;32;20325;-73
2021/06/10 02:13:47;;;;;;;4.33;2.90;;;17.40;95.80;;;;;;4439815;32;20214;-72
2021/06/10 02:16:15;;;;;;;4.87;3.20;;;17.50;95.80;;;;;;4440476;32;20135;-73
2021/06/10 02:18:45;;;;;;;7.63;3.30;;;17.40;95.80;;;;;;4440289;32;20161;-73
2021/06/10 02:21:14;;;;;;;7.40;3.20;;;17.30;96.00;;;;;;4440351;32;20339;-73
2021/06/10 02:23:43;;;;;;;5.17;3.17;;;17.30;96.20;;;;;;4448579;32;20496;-72
2021/06/10 02:26:10;;;;;;;4.57;2.97;;;17.10;96.40;;;;;;4445865;32;20235;-74
2021/06/10 02:28:38;;;;;;;3.87;3.00;;;17.10;96.70;;;;;;4451778;32;20150;-73
2021/06/10 02:31:07;;;;;;;4.50;3.37;;;17.10;96.70;;;;;;4454549;32;20143;-72
2021/06/10 02:33:36;;;;;;;4.77;3.23;;;17.10;96.80;;;;;;4456950;32;20193;-72
2021/06/10 02:36:10;;;;;;;4.07;2.97;;;17.00;97.20;;;;;;4456910;32;20459;-72
2021/06/10 02:38:39;;;;;;;4.53;3.10;;;16.90;97.40;;;;;;4454359;32;20145;-73
2021/06/10 02:41:09;;;;;;;5.67;3.80;;;16.80;97.50;;;;;;4456825;32;20406;-72
2021/06/10 02:43:38;;;;;;;4.53;3.07;;;16.90;97.70;;;;;;4455336;32;20379;-73
2021/06/10 02:46:08;;;;;;;5.67;3.13;;;16.90;97.70;;;;;;4457044;32;20161;-73
2021/06/10 02:48:37;;;;;;;4.80;3.00;;;16.90;98.00;;;;;;4455298;32;20138;-71
2021/06/10 02:51:05;;;;;;;5.20;2.97;;;16.80;98.10;;;;;;4455069;32;20475;-71
2021/06/10 02:53:32;;;;;;;5.47;3.27;;;16.80;98.40;;;;;;4455235;32;20146;-72
2021/06/10 02:56:02;;;;;;;4.23;3.10;;;16.80;98.60;;;;;;4456609;32;20452;-72
2021/06/10 02:58:30;;;;;;;4.90;3.17;;;16.80;98.60;;;;;;4455171;32;20138;-72
2021/06/10 03:00:59;;;;;;;5.20;3.50;;;16.90;98.90;;;;;;4455187;32;20137;-72
2021/06/10 03:03:26;;;;;;;4.30;3.30;;;16.90;99.00;;;;;;4455135;32;20146;-72
2021/06/10 03:05:56;;;;;;;5.07;3.43;;;17.00;99.00;;;;;;4454624;32;20551;-72
2021/06/10 03:08:24;;;;;;;5.10;3.60;;;17.00;99.20;;;;;;4454970;32;20153;-72
2021/06/10 03:10:51;;;;;;;5.37;3.67;;;17.00;99.50;;;;;;4456484;32;20541;-72
2021/06/10 03:13:20;;;;;;;5.00;3.57;;;16.90;99.60;;;;;;4456104;32;20151;-73
2021/06/10 03:15:47;;;;;;;5.17;3.87;;;16.80;99.90;;;;;;4458232;32;20139;-72
2021/06/10 03:18:15;;;;;;;7.00;3.40;;;16.90;99.90;;;;;;4457170;32;20209;-73
2021/06/10 03:20:43;;;;;;;5.23;3.50;;;17.00;99.90;;;;;;4459172;32;20180;-73
2021/06/10 03:23:10;;;;;;;5.30;4.20;;;17.00;99.90;;;;;;4458395;32;20146;-73
2021/06/10 03:25:38;;;;;;;7.00;3.77;;;17.00;99.90;;;;;;4459622;32;20139;-73
2021/06/10 03:28:06;;;;;;;5.27;3.80;;;16.90;99.90;;;;;;4459891;32;20455;-73
2021/06/10 03:30:34;;;;;;;6.07;4.17;;;17.00;99.90;;;;;;4459569;32;20183;-73
2021/06/10 03:33:05;;;;;;;8.13;3.90;;;16.90;99.90;;;;;;4458148;32;20199;-74
2021/06/10 03:35:34;;;;;;;5.43;3.57;;;17.00;99.90;;;;;;4459531;32;20418;-73
2021/06/10 03:38:05;;;;;;;6.70;4.10;;;17.00;99.90;;;;;;4458053;32;20207;-74
2021/06/10 03:40:36;;;;;;;5.03;3.80;;;16.90;99.90;;;;;;4458006;32;20142;-74
2021/06/10 03:43:04;;;;;;;5.93;3.87;;;17.00;99.90;;;;;;4458219;32;20146;-74
2021/06/10 03:45:32;;;;;;;7.27;3.93;;;16.90;99.90;;;;;;4459384;32;20146;-74
2021/06/10 03:47:59;;;;;;;5.47;3.80;;;17.00;99.90;;;;;;4458791;32;20195;-74
2021/06/10 03:50:31;;;;;;;5.90;4.10;;;16.90;99.90;;;;;;4458063;32;20207;-73
2021/06/10 03:52:58;;;;;;;7.07;4.43;;;16.90;99.90;;;;;;4457725;32;20138;-73
2021/06/10 03:55:25;;;;;;;5.83;4.47;;;16.80;99.90;;;;;;4459271;32;20202;-73
2021/06/10 03:57:52;;;;;;;5.97;4.50;;;16.80;99.90;;;;;;4457934;32;20157;-73
2021/06/10 04:00:20;;;;;;;6.07;4.47;;;16.80;99.90;;;;;;4457564;32;20130;-73
2021/06/10 04:02:47;;;;;;;5.33;4.07;;;16.90;99.90;;;;;;4457654;32;20190;-73
2021/06/10 04:05:14;;;;;;;6.43;4.60;;;16.90;99.90;;;;;;4459088;32;20382;-73
2021/06/10 04:07:40;;;;;;;7.07;4.57;;;16.90;99.90;;;;;;4458019;32;20204;-73
2021/06/10 04:10:08;;;;;;;5.50;4.13;;;16.90;99.90;;;;;;4457518;32;20202;-73
2021/06/10 04:12:34;;;;;;;7.43;4.80;;;16.90;99.90;;;;;;4457462;32;20439;-74
2021/06/10 04:15:02;;;;;;;7.30;4.60;;;17.00;99.90;;;;;;4451409;32;20168;-73
2021/06/10 04:17:29;;;;;;;7.60;4.40;;;17.00;99.90;;;;;;4455587;32;20150;-73
2021/06/10 04:19:56;;;;;;;6.27;4.43;;;17.00;99.90;;;;;;4450424;32;20169;-73
2021/06/10 04:22:23;;;;;;;7.27;4.70;;;17.10;99.90;;;;;;4441730;32;20142;-73
2021/06/10 04:24:50;;;;;;;5.20;4.27;;;17.10;99.90;;;;;;4441217;32;20134;-73
2021/06/10 04:27:17;;;;;;;8.50;4.43;;;17.10;99.90;;;;;;4441790;32;20146;-73
2021/06/10 04:29:44;;;;;;;6.67;4.67;;;17.20;99.90;;;;;;4441660;32;20134;-73
2021/06/10 04:32:11;;;;;;;5.73;4.93;;;17.20;99.90;;;;;;4441616;32;20261;-73
2021/06/10 04:34:37;;;;;;;7.27;4.40;;;17.20;99.90;;;;;;4441081;32;20205;-73
2021/06/10 04:37:04;;;;;;;7.93;4.73;;;17.30;99.90;;;;;;4442951;32;20150;-73
2021/06/10 04:39:31;;;;;;;6.97;4.73;;;17.30;99.90;;;;;;4441623;32;20445;-73
2021/06/10 04:41:58;;;;;;;9.17;4.83;;;17.30;99.90;;;;;;4441279;32;20143;-73
2021/06/10 04:44:25;;;;;;;6.00;4.27;;;17.30;99.90;;;;;;4442113;32;20167;-73
2021/06/10 04:46:52;;;;;;;9.67;5.00;;;17.40;99.90;;;;;;4456026;32;20463;-74
2021/06/10 04:49:19;;;;;;;8.97;4.97;;;17.50;99.90;;;;;;4456699;32;20146;-69
2021/06/10 04:51:46;;;;;;;6.47;4.47;;;17.60;99.90;;;;;;4458031;32;20151;-69
2021/06/10 04:54:12;;;;;;;7.43;4.70;;;17.50;99.90;;;;;;4456675;32;20157;-70
2021/06/10 04:56:39;;;;;;;7.67;4.70;;;17.60;99.90;;;;;;4456704;32;20157;-72
2021/06/10 04:59:06;;;;;;;8.43;4.73;;;17.60;99.90;;;;;;4458238;32;20418;-69
2021/06/10 05:01:33;;;;;;;8.27;4.60;;;17.70;99.90;;;;;;4455990;32;20166;-69
2021/06/10 05:04:00;;;;;;;9.87;5.43;;;17.80;99.90;;;;;;4457426;32;20198;-69
2021/06/10 05:06:29;;;;;;;7.53;4.40;;;17.90;99.90;;;;;;4450420;32;20511;-69
2021/06/10 05:08:55;;;;;;;14.73;5.10;;;17.90;99.90;;;;;;4441350;32;20143;-69
2021/06/10 05:11:22;;;;;;;9.90;4.90;;;18.00;99.90;;;;;;4440341;32;20146;-69
2021/06/10 05:13:49;;;;;;;11.53;5.33;;;18.00;99.90;;;;;;4442281;32;20135;-69
2021/06/10 05:16:16;;;;;;;9.23;4.80;;;18.00;99.90;;;;;;4442747;32;20183;-71
2021/06/10 05:18:43;;;;;;;8.33;4.53;;;18.00;99.90;;;;;;4442312;32;20201;-69
2021/06/10 05:21:12;;;;;;;7.47;4.27;;;18.00;99.90;;;;;;4442153;32;20483;-69
2021/06/10 05:23:41;;;;;;;8.20;4.50;;;18.10;99.90;;;;;;4440766;32;20195;-69
2021/06/10 05:26:08;;;;;;;8.90;4.60;;;18.20;99.90;;;;;;4440433;32;20195;-69
2021/06/10 05:28:35;;;;;;;6.37;4.03;;;18.30;99.90;;;;;;4440776;32;20188;-69
2021/06/10 05:31:04;;;;;;;7.00;4.63;;;18.40;99.90;;;;;;4442158;32;20194;-69
2021/06/10 05:33:31;;;;;;;9.00;4.30;;;18.40;99.90;;;;;;4440464;32;20174;-69
2021/06/10 05:35:58;;;;;;;8.77;4.80;;;18.40;99.90;;;;;;4440206;32;20195;-69
2021/06/10 05:38:25;;;;;;;7.30;4.33;;;18.50;99.90;;;;;;4441783;32;20492;-69
2021/06/10 05:40:52;;;;;;;7.57;4.30;;;18.60;99.80;;;;;;4440680;32;20146;-69
2021/06/10 05:43:22;;;;;;;8.10;4.73;;;18.60;99.60;;;;;;4440463;32;20143;-69
2021/06/10 05:45:52;;;;;;;7.33;4.40;;;18.60;98.80;;;;;;4440074;32;20157;-69
2021/06/10 05:48:19;;;;;;;7.20;4.70;;;18.50;99.10;;;;;;4440007;32;20135;-67
2021/06/10 05:50:47;;;;;;;6.10;4.17;;;18.30;99.00;;;;;;4441600;32;20192;-67
2021/06/10 05:53:15;;;;;;;8.67;5.23;;;18.40;99.00;;;;;;4441632;32;20154;-68
2021/06/10 05:55:45;;;;;;;6.83;4.33;;;18.60;99.10;;;;;;4440101;32;20222;-68
2021/06/10 05:58:13;;;;;;;8.80;4.67;;;18.70;98.70;;;;;;4441649;32;20495;-68
2021/06/10 06:00:40;;;;;;;10.43;4.70;;;18.90;98.40;;;;;;4440397;32;20194;-68
2021/06/10 06:03:09;;;;;;;6.03;4.43;;;18.90;98.30;;;;;;4441290;32;20199;-68
2021/06/10 06:05:36;;;;;;;8.53;5.13;;;19.00;98.40;;;;;;4441516;32;20139;-67
2021/06/10 06:08:03;;;;;;;8.97;4.57;;;19.10;97.70;;;;;;4441107;32;20548;-68
2021/06/10 06:10:30;;;;;;;7.03;4.50;;;19.20;98.10;;;;;;4441443;32;20151;-68
2021/06/10 06:12:59;;;;;;;7.93;4.47;;;19.10;97.80;;;;;;4440586;32;20169;-68
2021/06/10 06:15:27;;;;;;;23.53;8.03;;;19.10;97.90;;;;;;4441410;32;20161;-68
2021/06/10 06:17:54;;;;;;;8.47;4.50;;;19.30;98.50;;;;;;4441259;32;20187;-67
2021/06/10 06:20:22;;;;;;;13.87;6.00;;;19.40;98.00;;;;;;4440752;32;20196;-68
2021/06/10 06:22:50;;;;;;;6.63;4.03;;;19.40;97.50;;;;;;4441091;32;20192;-69
2021/06/10 06:25:19;;;;;;;9.07;4.83;;;19.60;97.40;;;;;;4440067;32;20176;-69
2021/06/10 06:27:47;;;;;;;6.53;4.63;;;19.50;97.00;;;;;;4427239;32;20177;-69
2021/06/10 06:30:16;;;;;;;5.73;4.27;;;19.50;97.00;;;;;;4438373;32;20170;-69
2021/06/10 06:32:48;;;;;;;9.37;4.40;;;19.50;97.30;;;;;;4438807;32;20154;-67
2021/06/10 06:35:15;;;;;;;40.83;9.60;;;19.60;97.20;;;;;;4440483;32;20134;-68
2021/06/10 06:37:42;;;;;;;20.43;7.23;;;19.80;97.60;;;;;;4438675;32;20258;-67
2021/06/10 06:40:10;;;;;;;8.60;5.07;;;19.80;97.30;;;;;;4439100;32;20146;-67
2021/06/10 06:42:37;;;;;;;7.63;4.80;;;19.70;96.50;;;;;;4440947;32;20131;-67
2021/06/10 06:45:07;;;;;;;25.90;8.17;;;19.70;97.10;;;;;;4441244;32;20179;-68
2021/06/10 06:47:34;;;;;;;12.97;5.70;;;19.80;96.90;;;;;;4441028;32;20138;-68
2021/06/10 06:50:01;;;;;;;34.20;9.53;;;19.80;96.70;;;;;;4439758;32;20166;-68
2021/06/10 06:52:28;;;;;;;19.13;6.07;;;19.90;96.60;;;;;;4441101;32;20177;-68
2021/06/10 06:54:55;;;;;;;8.67;5.13;;;20.00;97.00;;;;;;4439553;32;20199;-65
2021/06/10 06:57:22;;;;;;;9.07;4.57;;;20.00;97.00;;;;;;4439301;32;20170;-68
2021/06/10 06:59:51;;;;;;;9.63;4.87;;;20.20;96.40;;;;;;4424674;32;20173;-67
2021/06/10 07:02:18;;;;;;;35.30;12.30;;;20.30;96.30;;;;;;4425499;32;20243;-66
2021/06/10 07:04:45;;;;;;;11.87;4.90;;;20.30;96.00;;;;;;4424842;32;20201;-66
2021/06/10 07:07:11;;;;;;;6.77;4.30;;;20.30;95.60;;;;;;4424027;32;20449;-66
2021/06/10 07:09:38;;;;;;;7.97;4.73;;;20.50;95.50;;;;;;4423791;32;20196;-67
2021/06/10 07:12:06;;;;;;;10.13;4.53;;;20.60;95.70;;;;;;4425361;32;20151;-66
2021/06/10 07:14:33;;;;;;;8.80;4.70;;;20.70;94.50;;;;;;4424326;32;20142;-66
2021/06/10 07:17:00;;;;;;;9.63;5.00;;;20.80;94.80;;;;;;4424008;32;20165;-66
2021/06/10 07:19:27;;;;;;;8.13;4.37;;;20.80;94.50;;;;;;4423904;32;20204;-66
2021/06/10 07:21:54;;;;;;;14.17;4.80;;;20.80;95.10;;;;;;4425415;32;20345;-67
2021/06/10 07:24:38;;;;;;;11.30;4.17;;;20.90;94.80;;;;;;4425317;32;20142;-67
2021/06/10 07:27:06;;;;;;;29.47;9.07;;;20.90;93.10;;;;;;4424312;32;20139;-67
2021/06/10 07:29:32;;;;;;;12.57;4.20;;;20.80;93.00;;;;;;4425224;32;20206;-67
2021/06/10 07:31:59;;;;;;;10.37;4.13;;;20.90;92.30;;;;;;4423599;32;20147;-67
2021/06/10 07:34:27;;;;;;;10.97;4.57;;;21.00;92.20;;;;;;4425355;32;20404;-67
2021/06/10 07:36:54;;;;;;;8.20;3.80;;;21.00;92.20;;;;;;4424025;32;20482;-67
2021/06/10 07:39:21;;;;;;;10.10;4.00;;;20.90;92.40;;;;;;4423945;32;20173;-66
2021/06/10 07:41:48;;;;;;;10.97;4.10;;;21.10;91.90;;;;;;4425174;32;20155;-66
2021/06/10 07:44:18;;;;;;;9.87;3.73;;;21.20;91.00;;;;;;4423730;32;20162;-66
2021/06/10 07:46:45;;;;;;;7.37;3.67;;;21.10;91.10;;;;;;4425080;32;20201;-66
2021/06/10 07:49:12;;;;;;;9.07;4.00;;;21.10;91.10;;;;;;4424729;32;20174;-67
2021/06/10 07:51:39;;;;;;;6.53;3.73;;;21.20;90.90;;;;;;4425059;32;20341;-67
2021/06/10 07:54:06;;;;;;;6.10;3.57;;;21.40;90.50;;;;;;4425063;32;20169;-66
2021/06/10 07:56:33;;;;;;;4.93;3.57;;;21.20;90.00;;;;;;4425172;32;20214;-66
2021/06/10 07:58:59;;;;;;;4.73;3.20;;;21.30;90.60;;;;;;4425108;32;20151;-67
2021/06/10 08:01:26;;;;;;;5.60;3.20;;;21.30;90.10;;;;;;4426773;32;20170;-67
2021/06/10 08:03:54;;;;;;;6.07;3.67;;;21.60;90.40;;;;;;4427221;32;20138;-67
2021/06/10 08:06:21;;;;;;;7.40;3.60;;;21.70;89.70;;;;;;4427801;32;20206;-67
2021/06/10 08:08:48;;;;;;;5.37;3.27;;;21.80;88.40;;;;;;4440130;32;20240;-67
2021/06/10 08:11:16;;;;;;;6.73;3.90;;;21.90;86.80;;;;;;4441498;32;20209;-66
2021/06/10 08:13:43;;;;;;;8.03;3.60;;;21.60;87.40;;;;;;4441322;32;20165;-67
2021/06/10 08:16:10;;;;;;;7.70;3.80;;;21.70;87.90;;;;;;4441363;32;20433;-66
2021/06/10 08:18:37;;;;;;;6.07;3.73;;;21.80;88.10;;;;;;4440652;32;20413;-66
2021/06/10 08:21:04;;;;;;;6.43;4.07;;;21.90;86.70;;;;;;4442448;32;20139;-66
2021/06/10 08:23:32;;;;;;;5.50;3.67;;;22.20;87.30;;;;;;4441279;32;20169;-66
2021/06/10 08:26:03;;;;;;;8.40;3.80;;;22.90;82.00;;;;;;4442814;32;20234;-66
2021/06/10 08:28:31;;;;;;;5.97;3.60;;;23.70;77.80;;;;;;4440564;32;20147;-67
2021/06/10 08:30:58;;;;;;;7.05;3.50;;;24.20;73.30;;;;;;4441835;32;20219;-67
2021/06/10 08:33:26;;;;;;;5.57;3.22;;;24.40;71.10;;;;;;4441308;32;20213;-66
2021/06/10 08:35:53;;;;;;;4.18;2.95;;;24.90;70.10;;;;;;4440762;32;20233;-67
2021/06/10 08:38:20;;;;;;;5.85;3.20;;;25.00;66.60;;;;;;4441201;32;20138;-68
2021/06/10 08:40:47;;;;;;;5.20;2.83;;;25.50;66.60;;;;;;4443372;32;20203;-68
2021/06/10 08:43:14;;;;;;;6.05;3.28;;;25.70;64.40;;;;;;4442805;32;20180;-69
2021/06/10 08:45:45;;;;;;;4.55;2.95;;;25.50;61.60;;;;;;4441307;32;20340;-69
2021/06/10 08:48:12;;;;;;;4.30;2.80;;;26.10;63.00;;;;;;4441483;32;20237;-69
2021/06/10 08:50:39;;;;;;;3.60;2.87;;;26.50;61.00;;;;;;4442793;32;20139;-70
2021/06/10 08:53:10;;;;;;;4.72;2.97;;;26.70;58.00;;;;;;4441868;32;20146;-70
2021/06/10 08:55:37;;;;;;;5.62;2.85;;;27.00;58.90;;;;;;4441520;32;20131;-70
2021/06/10 08:58:04;;;;;;;4.57;3.20;;;26.90;58.30;;;;;;4441408;32;20150;-70
2021/06/10 09:00:32;;;;;;;4.78;3.15;;;26.70;59.00;;;;;;4440528;32;20239;-70
2021/06/10 09:03:00;;;;;;;6.43;3.00;;;27.20;59.10;;;;;;4438085;32;20202;-71
2021/06/10 09:05:29;;;;;;;3.62;2.80;;;27.50;56.60;;;;;;4438383;32;20517;-70
2021/06/10 09:08:02;;;;;;;6.07;2.90;;;27.70;56.30;;;;;;4437466;32;20147;-70
2021/06/10 09:10:31;;;;;;;3.17;2.70;;;28.00;55.60;;;;;;4439124;32;20158;-72
2021/06/10 09:13:06;;;;;;;6.85;2.92;;;27.20;55.10;;;;;;4439689;32;20158;-72
2021/06/10 09:15:38;;;;;;;5.40;2.95;;;27.30;57.10;;;;;;4438210;32;20217;-72
2021/06/10 09:18:05;;;;;;;2.87;2.40;;;27.70;55.90;;;;;;4437193;32;20376;-71
2021/06/10 09:20:45;;;;;;;5.53;2.95;;;27.20;53.90;;;;;;4438877;32;20217;-71
2021/06/10 09:23:16;;;;;;;3.35;2.25;;;26.80;54.80;;;;;;4437601;32;20231;-71
2021/06/10 09:25:45;;;;;;;6.55;2.58;;;27.30;55.50;;;;;;4439004;32;20194;-71
2021/06/10 09:28:13;;;;;;;17.80;3.25;;;27.90;53.80;;;;;;4437454;32;20491;-71
2021/06/10 09:30:47;;;;;;;10.30;3.00;;;28.40;52.00;;;;;;4438043;32;20426;-71
2021/06/10 09:33:18;;;;;;;16.08;3.30;;;28.40;51.70;;;;;;4442009;32;20202;-72
2021/06/10 09:35:47;;;;;;;7.12;3.30;;;28.20;53.00;;;;;;4440682;32;20165;-71
2021/06/10 09:38:20;;;;;;;5.85;2.53;;;27.60;51.80;;;;;;4440365;32;20143;-71
2021/06/10 09:41:01;;;;;;;14.30;3.35;;;27.50;53.90;;;;;;4440656;32;20183;-68
2021/06/10 09:43:44;;;;;;;6.80;2.70;;;27.40;54.40;;;;;;4441630;32;20197;-70
2021/06/10 09:46:11;;;;;;;20.67;3.60;;;27.50;50.40;;;;;;4442273;32;20173;-70
2021/06/10 09:48:38;;;;;;;16.52;3.78;;;27.60;51.50;;;;;;4440770;32;20202;-70
2021/06/10 09:51:19;;;;;;;47.28;6.28;;;27.90;51.00;;;;;;4440162;32;20189;-69
2021/06/10 09:53:46;;;;;;;21.98;4.55;;;28.10;52.70;;;;;;4441743;32;20172;-69
2021/06/10 09:56:13;;;;;;;9.23;2.72;;;28.60;48.90;;;;;;4440865;32;20204;-69
2021/06/10 09:58:42;;;;;;;12.88;3.42;;;28.60;48.40;;;;;;4440885;32;20135;-69
2021/06/10 10:01:15;;;;;;;12.45;3.40;;;29.00;49.20;;;;;;4439708;32;20158;-69
2021/06/10 10:03:45;;;;;;;4.68;2.40;;;29.30;49.20;;;;;;4439488;32;20138;-69
2021/06/10 10:06:23;;;;;;;15.45;2.90;;;28.40;47.50;;;;;;4440998;32;20422;-69
2021/06/10 10:09:04;;;;;;;12.50;2.70;;;28.20;48.40;;;;;;4439455;32;20250;-73
2021/06/10 10:11:33;;;;;;;6.97;2.60;;;28.60;46.00;;;;;;4438716;32;20459;-73
2021/06/10 10:14:03;;;;;;;6.60;2.30;;;28.60;46.30;;;;;;4439532;32;20161;-73
2021/06/10 10:16:34;;;;;;;6.30;2.50;;;29.00;47.80;;;;;;4438519;32;20146;-73
2021/06/10 10:19:03;;;;;;;6.97;2.37;;;29.10;47.60;;;;;;4439646;32;20151;-73
2021/06/10 10:21:33;;;;;;;10.88;3.15;;;29.10;48.00;;;;;;4441110;32;20191;-73
2021/06/10 10:24:09;;;;;;;10.57;2.87;;;29.70;47.00;;;;;;4439396;32;20143;-73
2021/06/10 10:26:37;;;;;;;5.00;2.50;;;29.90;46.40;;;;;;4439932;32;20135;-73
2021/06/10 10:29:10;;;;;;;4.47;2.42;;;30.00;46.80;;;;;;4439424;32;20135;-73
2021/06/10 10:31:40;;;;;;;2.50;2.30;;;29.30;46.90;;;;;;4440421;32;20184;-73
2021/06/10 10:34:29;;;;;;;6.57;2.53;;;28.10;48.20;;;;;;4438799;32;20403;-72
2021/06/10 10:36:57;;;;;;;4.43;2.50;;;27.80;50.90;;;;;;4438781;32;20147;-72
2021/06/10 10:39:33;;;;;;;6.82;2.53;;;27.70;49.90;;;;;;4438179;32;20171;-74
2021/06/10 10:42:00;;;;;;;3.47;2.30;;;28.10;49.90;;;;;;4438189;32;20416;-74
2021/06/10 10:44:30;;;;;;;7.75;2.20;;;28.90;49.40;;;;;;4440073;32;20139;-73
2021/06/10 10:47:03;;;;;;;10.45;2.78;;;29.70;49.30;;;;;;4438413;32;20500;-73
2021/06/10 10:49:42;;;;;;;3.87;2.62;;;29.80;47.80;;;;;;4439390;32;20182;-73
2021/06/10 10:52:16;;;;;;;7.28;3.20;;;29.60;47.60;;;;;;4440641;32;20161;-73
2021/06/10 10:54:45;;;;;;;10.05;2.90;;;29.00;49.20;;;;;;4439005;32;20138;-73
2021/06/10 10:57:36;;;;;;;5.10;2.40;;;28.30;48.40;;;;;;4439011;32;20497;-73
2021/06/10 11:00:05;;;;;;;10.95;2.60;;;28.00;50.50;;;;;;4440781;32;20154;-73
2021/06/10 11:02:36;;;;;;;5.15;2.50;;;28.20;51.10;;;;;;4438769;32;20143;-73
2021/06/10 11:05:07;;;;;;;6.55;2.20;;;28.80;49.20;;;;;;4439750;32;20434;-73
2021/06/10 11:07:40;;;;;;;8.95;2.60;;;29.10;47.60;;;;;;4440094;32;20191;-73
2021/06/10 11:10:18;;;;;;;6.10;2.58;;;29.00;48.60;;;;;;4438702;32;20174;-73
2021/06/10 11:12:53;;;;;;;6.93;2.87;;;28.30;48.00;;;;;;4438346;32;20170;-73
2021/06/10 11:15:29;;;;;;;8.30;2.70;;;27.90;49.50;;;;;;4439463;32;20173;-70
2021/06/10 11:17:59;;;;;;;5.00;2.45;;;27.90;51.30;;;;;;4440688;32;20517;-71
2021/06/10 11:20:38;;;;;;;9.85;2.85;;;28.80;49.60;;;;;;4439197;32;20139;-72
2021/06/10 11:23:14;;;;;;;2.85;2.20;;;30.00;48.60;;;;;;4440876;32;20529;-72
2021/06/10 11:25:46;;;;;;;3.95;2.67;;;30.80;44.50;;;;;;4439293;32;20206;-71
2021/06/10 11:28:18;;;;;;;4.37;2.40;;;30.60;44.40;;;;;;4440832;32;20198;-71
2021/06/10 11:30:50;;;;;;;5.50;2.25;;;30.80;44.00;;;;;;4439394;32;20147;-71
2021/06/10 11:33:17;;;;;;;3.60;2.28;;;31.00;45.80;;;;;;4438705;32;20556;-71
2021/06/10 11:35:53;;;;;;;3.22;1.98;;;30.80;41.90;;;;;;4442166;32;20204;-72
2021/06/10 11:38:30;;;;;;;7.78;2.15;;;30.20;45.10;;;;;;4442237;32;20147;-71
2021/06/10 11:41:03;;;;;;;6.30;2.35;;;30.10;44.40;;;;;;4442337;32;20403;-70
2021/06/10 11:43:32;;;;;;;9.90;2.70;;;29.10;44.50;;;;;;4442820;32;20147;-70
2021/06/10 11:46:15;;;;;;;6.55;2.72;;;28.90;46.30;;;;;;4443716;32;20146;-70
2021/06/10 11:48:42;;;;;;;7.03;2.62;;;28.70;46.20;;;;;;4443756;32;20147;-69
2021/06/10 11:51:19;;;;;;;13.77;3.67;;;28.60;47.10;;;;;;4442249;32;20143;-70
2021/06/10 11:53:47;;;;;;;9.23;2.65;;;28.60;47.80;;;;;;4440802;32;20428;-69
2021/06/10 11:56:14;;;;;;;6.25;2.75;;;28.50;46.70;;;;;;4441961;32;20169;-70
2021/06/10 11:58:41;;;;;;;9.63;2.80;;;28.30;48.70;;;;;;4442037;32;20205;-69
2021/06/10 12:01:10;;;;;;;8.43;2.72;;;28.70;48.10;;;;;;4441211;32;20261;-69
2021/06/10 12:03:39;;;;;;;16.80;3.58;;;29.30;46.80;;;;;;4442599;32;20157;-70
2021/06/10 12:06:12;;;;;;;3.33;2.42;;;30.10;45.70;;;;;;4442007;32;20480;-70
2021/06/10 12:08:42;;;;;;;6.20;2.40;;;30.80;41.90;;;;;;4442445;32;20162;-71
2021/06/10 12:11:11;;;;;;;5.20;2.40;;;31.10;42.80;;;;;;4442360;32;20201;-72
2021/06/10 12:13:46;;;;;;;5.60;2.25;;;31.30;41.80;;;;;;4442497;32;20147;-72
2021/06/10 12:16:15;;;;;;;3.30;2.15;;;32.10;41.40;;;;;;4441845;32;20485;-69
2021/06/10 12:18:43;;;;;;;5.90;2.40;;;32.20;39.70;;;;;;4441560;32;20139;-69
2021/06/10 12:21:15;;;;;;;13.68;3.85;;;32.30;40.00;;;;;;4443354;32;20398;-69
2021/06/10 12:23:59;;;;;;;12.00;3.20;;;32.80;40.30;;;;;;4442166;32;20440;-69
2021/06/10 12:26:33;;;;;;;8.32;2.60;;;33.70;38.90;;;;;;4443348;32;20218;-69
2021/06/10 12:29:02;;;;;;;15.10;3.20;;;34.10;38.50;;;;;;4441643;32;20154;-71
2021/06/10 12:31:32;;;;;;;4.50;2.00;;;34.40;36.50;;;;;;4441284;32;20195;-67
2021/06/10 12:34:04;;;;;;;3.55;2.10;;;33.30;36.70;;;;;;4441370;32;20199;-67
2021/06/10 12:36:36;;;;;;;13.52;3.50;;;32.00;39.10;;;;;;4443121;32;20389;-68
2021/06/10 12:39:15;;;;;;;25.27;4.68;;;32.70;39.50;;;;;;4442130;32;20381;-69
2021/06/10 12:41:52;;;;;;;32.38;5.40;;;33.40;39.00;;;;;;4441502;32;20539;-69
2021/06/10 12:44:31;;;;;;;25.23;4.18;;;34.10;38.40;;;;;;4441618;32;20440;-69
2021/06/10 12:47:00;;;;;;;7.18;2.53;;;35.00;37.50;;;;;;4441472;32;20154;-69
2021/06/10 12:49:48;;;;;;;9.82;2.62;;;33.30;36.40;;;;;;4441283;32;20538;-70
2021/06/10 12:52:27;;;;;;;3.95;2.15;;;33.50;37.60;;;;;;4440960;32;20166;-70
2021/06/10 12:55:03;;;;;;;3.10;1.90;;;32.90;37.30;;;;;;4441134;32;20238;-71
2021/06/10 12:57:32;;;;;;;6.95;2.33;;;32.30;37.90;;;;;;4441302;32;20146;-72